Time;durP1;ratioP1;P1;durP2;ratioP2;P2;SDS_P1;SDS_P2;PMS_P1;PMS_P2;Temp;Humidity;BMP_temperature;BMP_pressure;BME280_temperature;BME280_humidity;BME280_pressure;Samples;Min_cycle;Max_cycle;Signal;HPM_P1;HPM_P2
2022/07/14 00:00:29;;;;;;;1.42;0.93;;;;;;;;;;4361654;32;20240;-80
2022/07/14 00:02:54;;;;;;;1.45;1.00;;;;;;;;;;4361595;32;20218;-79
2022/07/14 00:05:20;;;;;;;2.95;1.17;;;;;;;;;;4361627;32;20217;-80
2022/07/14 00:07:46;;;;;;;1.05;0.85;;;;;;;;;;4361471;32;20241;-80
2022/07/14 00:10:12;;;;;;;5.78;1.10;;;;;;;;;;4361818;32;20210;-80
2022/07/14 00:12:37;;;;;;;4.20;1.10;;;;;;;;;;4361387;32;20264;-81
2022/07/14 00:15:04;;;;;;;1.55;0.85;;;;;;;;;;4361496;32;20269;-80
2022/07/14 00:17:30;;;;;;;1.35;0.82;;;;;;;;;;4361451;32;20510;-80
2022/07/14 00:19:56;;;;;;;1.35;0.88;;;;;;;;;;4361706;32;20245;-80
2022/07/14 00:22:22;;;;;;;2.65;0.75;;;;;;;;;;4361392;32;20685;-81
2022/07/14 00:24:49;;;;;;;0.95;0.80;;;;;;;;;;4361280;32;20190;-81
2022/07/14 00:27:15;;;;;;;1.50;1.20;;;;;;;;;;4360151;32;20579;-82
2022/07/14 00:29:41;;;;;;;3.45;1.37;;;;;;;;;;4347728;32;20615;-82
2022/07/14 00:32:07;;;;;;;4.50;1.37;;;;;;;;;;4361235;32;20289;-80
2022/07/14 00:34:33;;;;;;;2.05;1.12;;;;;;;;;;4361409;32;20675;-82
2022/07/14 00:36:59;;;;;;;1.15;1.00;;;;;;;;;;4361224;32;20297;-80
2022/07/14 00:39:26;;;;;;;2.58;1.52;;;;;;;;;;4361198;32;20187;-80
2022/07/14 00:41:52;;;;;;;2.87;1.40;;;;;;;;;;4361042;32;20655;-81
2022/07/14 00:44:18;;;;;;;2.15;1.50;;;;;;;;;;4361543;32;20618;-80
2022/07/14 00:46:45;;;;;;;2.80;1.27;;;;;;;;;;4347218;32;20655;-80
2022/07/14 00:49:10;;;;;;;3.30;1.75;;;;;;;;;;4361361;32;20563;-79
2022/07/14 00:51:36;;;;;;;2.40;1.58;;;;;;;;;;4360919;32;20286;-80
2022/07/14 00:54:02;;;;;;;2.15;1.58;;;;;;;;;;4361118;32;20186;-80
2022/07/14 00:56:28;;;;;;;3.28;1.80;;;;;;;;;;4361091;32;20223;-80
2022/07/14 00:58:54;;;;;;;3.50;2.00;;;;;;;;;;4347279;32;20301;-81
2022/07/14 01:01:20;;;;;;;3.30;1.70;;;;;;;;;;4360895;32;20570;-81
2022/07/14 01:03:46;;;;;;;3.70;1.85;;;;;;;;;;4361037;32;20210;-83
2022/07/14 01:06:12;;;;;;;1.98;1.48;;;;;;;;;;4360964;32;20241;-80
2022/07/14 01:08:38;;;;;;;1.50;1.40;;;;;;;;;;4361109;32;20226;-82
2022/07/14 01:11:07;;;;;;;1.95;1.10;;;;;;;;;;4361013;32;20202;-80
2022/07/14 01:13:36;;;;;;;4.05;1.62;;;;;;;;;;4360655;32;20861;-85
2022/07/14 01:16:02;;;;;;;3.50;1.58;;;;;;;;;;4360660;32;20601;-80
2022/07/14 01:18:28;;;;;;;2.65;1.45;;;;;;;;;;4360703;32;20557;-80
2022/07/14 01:20:54;;;;;;;1.85;1.40;;;;;;;;;;4360652;32;20194;-80
2022/07/14 01:23:20;;;;;;;5.40;1.23;;;;;;;;;;4360916;32;20634;-80
2022/07/14 01:25:46;;;;;;;2.22;1.45;;;;;;;;;;4360345;32;20182;-80
2022/07/14 01:28:12;;;;;;;2.22;1.23;;;;;;;;;;4360361;32;20303;-81
2022/07/14 01:30:37;;;;;;;10.32;1.50;;;;;;;;;;4360390;32;20245;-80
2022/07/14 01:33:03;;;;;;;1.37;1.27;;;;;;;;;;4360142;32;20308;-80
2022/07/14 01:35:29;;;;;;;2.55;1.30;;;;;;;;;;4347075;32;20205;-80
2022/07/14 01:37:55;;;;;;;4.68;2.10;;;;;;;;;;4360235;32;20207;-80
2022/07/14 01:40:21;;;;;;;5.37;2.35;;;;;;;;;;4360392;32;20598;-82
2022/07/14 01:42:47;;;;;;;4.80;2.90;;;;;;;;;;4359715;32;20309;-80
2022/07/14 01:45:13;;;;;;;3.10;2.10;;;;;;;;;;4360166;32;20199;-80
2022/07/14 01:47:39;;;;;;;3.80;1.37;;;;;;;;;;4360210;32;20638;-80
2022/07/14 01:50:05;;;;;;;1.98;1.15;;;;;;;;;;4359945;32;20533;-80
2022/07/14 01:52:31;;;;;;;4.95;0.88;;;;;;;;;;4360322;32;20543;-80
2022/07/14 01:54:57;;;;;;;1.50;0.93;;;;;;;;;;4359956;32;20215;-81
2022/07/14 01:57:22;;;;;;;1.15;1.05;;;;;;;;;;4360285;32;20285;-80
2022/07/14 01:59:48;;;;;;;1.50;1.00;;;;;;;;;;4359962;32;20230;-80
2022/07/14 02:02:14;;;;;;;1.25;1.00;;;;;;;;;;4358756;32;20218;-80
2022/07/14 02:04:40;;;;;;;3.97;1.40;;;;;;;;;;4359788;32;20214;-80
2022/07/14 02:07:07;;;;;;;2.85;1.23;;;;;;;;;;4360170;32;20199;-80
2022/07/14 02:12:17;;;;;;;5.72;1.02;;;;;;;;;;4360212;32;20221;-85
2022/07/14 02:14:43;;;;;;;1.40;1.17;;;;;;;;;;4346086;32;20623;-79
2022/07/14 02:17:09;;;;;;;2.58;1.58;;;;;;;;;;4360035;32;20352;-80
2022/07/14 02:19:35;;;;;;;1.52;1.05;;;;;;;;;;4359666;32;20632;-80
2022/07/14 02:22:01;;;;;;;5.47;1.62;;;;;;;;;;4359782;32;20309;-79
2022/07/14 02:24:26;;;;;;;3.15;0.95;;;;;;;;;;4346158;32;20273;-79
2022/07/14 02:26:52;;;;;;;8.77;1.23;;;;;;;;;;4359755;32;20183;-80
2022/07/14 02:29:21;;;;;;;1.90;1.15;;;;;;;;;;4359674;32;20528;-80
2022/07/14 02:31:48;;;;;;;3.85;1.42;;;;;;;;;;4346415;33;20587;-81
2022/07/14 02:34:14;;;;;;;1.87;1.23;;;;;;;;;;4359634;33;20757;-80
2022/07/14 02:36:40;;;;;;;1.73;1.02;;;;;;;;;;4360007;33;20596;-80
2022/07/14 02:39:06;;;;;;;2.75;1.27;;;;;;;;;;4359568;33;20619;-80
2022/07/14 02:41:32;;;;;;;3.67;1.58;;;;;;;;;;4346540;33;20563;-81
2022/07/14 02:43:58;;;;;;;1.92;1.20;;;;;;;;;;4345928;33;20236;-80
2022/07/14 02:46:24;;;;;;;2.05;1.35;;;;;;;;;;4358601;33;20559;-80
2022/07/14 02:48:50;;;;;;;5.70;1.52;;;;;;;;;;4359431;33;20293;-80
2022/07/14 02:51:16;;;;;;;8.65;1.75;;;;;;;;;;4346260;33;20265;-80
2022/07/14 02:53:42;;;;;;;5.30;1.33;;;;;;;;;;4359443;33;20224;-80
2022/07/14 02:56:09;;;;;;;2.70;1.70;;;;;;;;;;4361617;32;20627;-79
2022/07/14 02:58:36;;;;;;;4.53;1.27;;;;;;;;;;4362487;32;20560;-81
2022/07/14 03:01:09;;;;;;;1.45;1.02;;;;;;;;;;4349071;32;20714;-80
2022/07/14 03:03:36;;;;;;;6.87;2.25;;;;;;;;;;4349304;32;20685;-80
2022/07/14 03:06:14;;;;;;;1.95;1.70;;;;;;;;;;4362708;32;20569;-81
2022/07/14 03:08:42;;;;;;;1.37;1.08;;;;;;;;;;4362555;32;20548;-80
2022/07/14 03:11:09;;;;;;;2.97;1.52;;;;;;;;;;4362004;32;20586;-79
2022/07/14 03:13:36;;;;;;;1.62;1.20;;;;;;;;;;4336935;32;20612;-79
2022/07/14 03:16:06;;;;;;;2.12;1.10;;;;;;;;;;4362402;32;20673;-80
2022/07/14 03:18:32;;;;;;;2.45;1.33;;;;;;;;;;4362135;32;20559;-80
2022/07/14 03:20:58;;;;;;;2.92;1.17;;;;;;;;;;4362111;32;20536;-79
2022/07/14 03:23:24;;;;;;;10.48;1.55;;;;;;;;;;4362300;32;20412;-79
2022/07/14 03:25:50;;;;;;;8.95;1.95;;;;;;;;;;4362348;32;20588;-80
2022/07/14 03:28:16;;;;;;;4.43;1.58;;;;;;;;;;4362485;32;20601;-88
2022/07/14 03:30:43;;;;;;;3.47;1.67;;;;;;;;;;4361704;32;20528;-80
2022/07/14 03:33:10;;;;;;;1.65;1.10;;;;;;;;;;4336425;32;20651;-80
2022/07/14 03:35:39;;;;;;;6.07;1.58;;;;;;;;;;4361920;32;20651;-79
2022/07/14 03:38:07;;;;;;;2.10;1.42;;;;;;;;;;4362061;32;20591;-80
2022/07/14 03:40:33;;;;;;;3.10;1.80;;;;;;;;;;4361763;32;20615;-80
2022/07/14 03:43:00;;;;;;;6.60;2.70;;;;;;;;;;4360803;32;20662;-80
2022/07/14 03:45:26;;;;;;;11.60;3.03;;;;;;;;;;4360693;32;20604;-79
2022/07/14 03:47:52;;;;;;;7.47;3.42;;;;;;;;;;4362042;32;20209;-82
2022/07/14 03:50:18;;;;;;;11.52;2.78;;;;;;;;;;4361824;32;20245;-79
2022/07/14 03:52:44;;;;;;;3.08;2.12;;;;;;;;;;4362248;32;20682;-80
2022/07/14 03:55:09;;;;;;;8.68;2.70;;;;;;;;;;4361857;32;20219;-80
2022/07/14 03:57:35;;;;;;;19.40;2.75;;;;;;;;;;4360392;32;20214;-80
2022/07/14 04:00:01;;;;;;;9.95;2.53;;;;;;;;;;4361689;32;20202;-80
2022/07/14 04:02:27;;;;;;;9.45;2.37;;;;;;;;;;4361840;32;20683;-80
2022/07/14 04:04:53;;;;;;;4.07;1.60;;;;;;;;;;4360847;32;20352;-78
2022/07/14 04:07:19;;;;;;;11.18;2.05;;;;;;;;;;4348423;32;20195;-79
2022/07/14 04:09:45;;;;;;;5.15;1.55;;;;;;;;;;4361633;32;20194;-80
2022/07/14 04:12:10;;;;;;;4.25;2.12;;;;;;;;;;4361452;32;20215;-80
2022/07/14 04:14:36;;;;;;;6.32;1.60;;;;;;;;;;4361610;32;20203;-80
2022/07/14 04:17:02;;;;;;;5.35;1.70;;;;;;;;;;4361483;32;20222;-80
2022/07/14 04:19:28;;;;;;;5.10;2.05;;;;;;;;;;4347934;32;20210;-79
2022/07/14 04:21:54;;;;;;;5.10;2.00;;;;;;;;;;4361379;32;20256;-81
2022/07/14 04:24:19;;;;;;;4.57;1.52;;;;;;;;;;4361252;32;20209;-81
2022/07/14 04:26:45;;;;;;;5.60;1.73;;;;;;;;;;4361081;32;20240;-82
2022/07/14 04:29:11;;;;;;;10.13;1.85;;;;;;;;;;4361421;32;20199;-82
2022/07/14 04:31:37;;;;;;;8.13;1.87;;;;;;;;;;4361058;32;20227;-80
2022/07/14 04:34:03;;;;;;;8.48;1.67;;;;;;;;;;4347950;32;20195;-80
2022/07/14 04:36:29;;;;;;;5.20;2.05;;;;;;;;;;4360925;32;20631;-81
2022/07/14 04:38:56;;;;;;;7.57;2.10;;;;;;;;;;4347348;32;20317;-80
2022/07/14 04:41:23;;;;;;;5.47;2.42;;;;;;;;;;4360931;32;20644;-81
2022/07/14 04:43:50;;;;;;;7.43;2.53;;;;;;;;;;4361047;32;20524;-81
2022/07/14 04:46:18;;;;;;;7.25;2.53;;;;;;;;;;4360918;32;20642;-81
2022/07/14 04:54:13;;;;;;;5.03;2.05;;;;;;;;;;4349228;32;20341;-80
2022/07/14 04:56:39;;;;;;;6.78;2.35;;;;;;;;;;4360233;32;20213;-82
2022/07/14 04:59:06;;;;;;;5.22;2.50;;;;;;;;;;4360148;32;20655;-81
2022/07/14 05:01:32;;;;;;;9.13;3.33;;;;;;;;;;4360211;32;20640;-81
2022/07/14 05:03:58;;;;;;;6.50;2.78;;;;;;;;;;4360324;32;20261;-82
2022/07/14 05:06:24;;;;;;;5.65;2.33;;;;;;;;;;4360086;32;20210;-83
2022/07/14 05:09:10;;;;;;;6.85;2.33;;;;;;;;;;4344219;33;20290;-82
2022/07/14 05:11:36;;;;;;;3.60;2.10;;;;;;;;;;4344013;33;20597;-95
2022/07/14 05:14:04;;;;;;;7.60;3.47;;;;;;;;;;4343766;33;20733;-82
2022/07/14 05:16:30;;;;;;;4.37;2.05;;;;;;;;;;4343019;33;20314;-88
2022/07/14 05:18:56;;;;;;;4.35;2.28;;;;;;;;;;4343229;33;20611;-80
2022/07/14 05:21:21;;;;;;;7.82;1.80;;;;;;;;;;4343113;33;20242;-81
2022/07/14 05:23:47;;;;;;;6.37;1.90;;;;;;;;;;4343212;33;20288;-80
2022/07/14 05:26:13;;;;;;;6.65;1.92;;;;;;;;;;4343740;33;20587;-81
2022/07/14 05:28:40;;;;;;;4.97;2.50;;;;;;;;;;4330716;33;20259;-85
2022/07/14 05:31:07;;;;;;;3.80;2.00;;;;;;;;;;4343669;33;20955;-86
2022/07/14 05:33:33;;;;;;;6.78;2.58;;;;;;;;;;4343670;33;20548;-86
2022/07/14 05:36:00;;;;;;;13.45;2.47;;;;;;;;;;4330930;33;20608;-89
2022/07/14 05:38:26;;;;;;;49.15;10.02;;;;;;;;;;4343772;33;20586;-88
2022/07/14 05:40:52;;;;;;;7.45;3.33;;;;;;;;;;4356564;32;20600;-85
2022/07/14 05:43:19;;;;;;;52.13;9.60;;;;;;;;;;4347069;32;20354;-87
2022/07/14 05:45:45;;;;;;;74.07;16.55;;;;;;;;;;4347613;32;20717;-86
2022/07/14 05:48:11;;;;;;;11.75;3.58;;;;;;;;;;4361152;32;20547;-85
2022/07/14 05:50:37;;;;;;;15.90;4.57;;;;;;;;;;4360798;32;20262;-84
2022/07/14 05:53:04;;;;;;;38.67;8.77;;;;;;;;;;4360525;32;20242;-81
2022/07/14 05:55:31;;;;;;;30.35;8.13;;;;;;;;;;4359969;32;20520;-84
2022/07/14 05:57:57;;;;;;;13.75;4.97;;;;;;;;;;4359573;32;20607;-84
2022/07/14 06:00:23;;;;;;;18.52;3.47;;;;;;;;;;4334170;32;20731;-84
2022/07/14 06:02:50;;;;;;;6.82;2.90;;;;;;;;;;4359565;32;20222;-83
2022/07/14 06:05:17;;;;;;;5.65;1.98;;;;;;;;;;4359723;32;20572;-83
2022/07/14 06:07:52;;;;;;;5.40;2.10;;;;;;;;;;4358704;32;20339;-82
2022/07/14 06:10:22;;;;;;;12.73;2.58;;;;;;;;;;4331482;33;20726;-84
2022/07/14 06:12:48;;;;;;;3.33;1.98;;;;;;;;;;4343163;33;20617;-85
2022/07/14 06:15:15;;;;;;;4.93;2.25;;;;;;;;;;4330365;33;20258;-85
2022/07/14 06:17:41;;;;;;;3.40;1.90;;;;;;;;;;4342550;33;20664;-84
2022/07/14 06:20:08;;;;;;;7.68;2.10;;;;;;;;;;4342016;33;20588;-84
2022/07/14 06:22:36;;;;;;;3.50;1.73;;;;;;;;;;4329382;33;20741;-84
2022/07/14 06:25:02;;;;;;;4.28;1.98;;;;;;;;;;4341666;33;20596;-84
2022/07/14 06:27:28;;;;;;;6.68;1.90;;;;;;;;;;4341422;33;20623;-84
2022/07/14 06:29:54;;;;;;;5.22;2.90;;;;;;;;;;4329381;33;20656;-84
2022/07/14 06:32:20;;;;;;;8.50;2.55;;;;;;;;;;4341802;33;20615;-84
2022/07/14 06:34:46;;;;;;;7.37;2.50;;;;;;;;;;4329394;33;20595;-84
2022/07/14 06:37:14;;;;;;;11.70;3.03;;;;;;;;;;4341791;33;20687;-84
2022/07/14 06:39:39;;;;;;;8.23;1.80;;;;;;;;;;4341634;33;20647;-84
2022/07/14 06:42:06;;;;;;;9.30;2.25;;;;;;;;;;4341164;33;20226;-84
2022/07/14 06:44:32;;;;;;;6.03;2.35;;;;;;;;;;4341818;33;20710;-82
2022/07/14 06:46:57;;;;;;;6.18;1.85;;;;;;;;;;4341644;33;20305;-83
2022/07/14 06:49:23;;;;;;;7.05;2.42;;;;;;;;;;4341593;33;20274;-84
2022/07/14 06:51:49;;;;;;;4.12;1.62;;;;;;;;;;4341653;33;20231;-85
2022/07/14 06:54:15;;;;;;;5.40;1.33;;;;;;;;;;4341533;33;20207;-85
2022/07/14 06:56:41;;;;;;;2.20;1.55;;;;;;;;;;4341452;33;20647;-83
2022/07/14 06:59:07;;;;;;;2.97;1.67;;;;;;;;;;4341318;33;20712;-86
2022/07/14 07:01:34;;;;;;;4.78;1.50;;;;;;;;;;4357132;33;20277;-86
2022/07/14 07:03:59;;;;;;;3.25;1.67;;;;;;;;;;4345123;33;20591;-86
2022/07/14 07:06:45;;;;;;;11.43;2.22;;;;;;;;;;4357937;33;20305;-94
2022/07/14 07:09:12;;;;;;;3.55;1.60;;;;;;;;;;4359169;33;20603;-86
2022/07/14 07:11:38;;;;;;;3.78;1.10;;;;;;;;;;4358839;33;20702;-86
2022/07/14 07:14:04;;;;;;;2.17;1.05;;;;;;;;;;4358803;33;20592;-85
2022/07/14 07:16:31;;;;;;;3.20;2.25;;;;;;;;;;4359014;33;20248;-92
2022/07/14 07:18:58;;;;;;;12.13;1.80;;;;;;;;;;4359374;33;20527;-87
2022/07/14 07:21:24;;;;;;;6.50;1.50;;;;;;;;;;4358675;33;20641;-84
2022/07/14 07:23:51;;;;;;;3.30;1.45;;;;;;;;;;4359338;33;20182;-89
2022/07/14 07:26:20;;;;;;;1.75;1.02;;;;;;;;;;4360890;33;20529;-84
2022/07/14 07:28:46;;;;;;;2.78;1.17;;;;;;;;;;4360308;33;20678;-86
2022/07/14 07:31:13;;;;;;;6.15;1.40;;;;;;;;;;4344956;33;20576;-92
2022/07/14 07:33:40;;;;;;;5.28;0.95;;;;;;;;;;4345027;33;20639;-85
2022/07/14 07:36:06;;;;;;;3.03;1.52;;;;;;;;;;4344941;33;20614;-86
2022/07/14 07:38:32;;;;;;;3.97;1.10;;;;;;;;;;4359061;33;20508;-86
2022/07/14 07:41:00;;;;;;;1.92;0.85;;;;;;;;;;4360514;32;20567;-85
2022/07/14 07:43:27;;;;;;;1.95;1.00;;;;;;;;;;4360078;32;20505;-85
2022/07/14 07:45:53;;;;;;;1.87;1.20;;;;;;;;;;4361083;32;20618;-86
2022/07/14 07:48:19;;;;;;;3.33;1.05;;;;;;;;;;4361221;32;20644;-86
2022/07/14 07:50:46;;;;;;;3.70;1.33;;;;;;;;;;4361087;32;20622;-86
2022/07/14 07:53:12;;;;;;;1.55;0.98;;;;;;;;;;4360824;32;20614;-85
2022/07/14 07:55:38;;;;;;;6.30;1.40;;;;;;;;;;4361284;32;20497;-80
2022/07/14 07:58:05;;;;;;;1.15;0.80;;;;;;;;;;4360522;32;20231;-80
2022/07/14 08:00:31;;;;;;;2.85;1.20;;;;;;;;;;4360986;32;20565;-80
2022/07/14 08:03:00;;;;;;;2.08;1.10;;;;;;;;;;4360797;32;20521;-81
2022/07/14 08:05:29;;;;;;;2.65;1.30;;;;;;;;;;4360562;32;20600;-81
2022/07/14 08:07:55;;;;;;;7.30;1.45;;;;;;;;;;4360625;32;20786;-81
2022/07/14 08:10:22;;;;;;;5.32;1.40;;;;;;;;;;4359661;32;20532;-81
2022/07/14 08:12:48;;;;;;;2.08;0.90;;;;;;;;;;4360381;32;20575;-82
2022/07/14 08:15:15;;;;;;;2.33;0.80;;;;;;;;;;4360609;32;20269;-81
2022/07/14 08:17:41;;;;;;;2.25;0.80;;;;;;;;;;4346817;32;20580;-81
2022/07/14 08:20:09;;;;;;;3.97;1.02;;;;;;;;;;4360532;32;20553;-80
2022/07/14 08:22:37;;;;;;;3.80;1.30;;;;;;;;;;4360426;32;20619;-82
2022/07/14 08:25:06;;;;;;;2.53;0.90;;;;;;;;;;4360460;32;20532;-80
2022/07/14 08:27:33;;;;;;;3.10;0.90;;;;;;;;;;4346904;32;20563;-81
2022/07/14 08:29:59;;;;;;;11.50;1.55;;;;;;;;;;4360146;32;20667;-81
2022/07/14 08:32:44;;;;;;;3.95;1.10;;;;;;;;;;4359145;32;20584;-83
2022/07/14 08:35:12;;;;;;;1.65;0.90;;;;;;;;;;4360261;32;20614;-81
2022/07/14 08:37:38;;;;;;;3.70;1.27;;;;;;;;;;4360296;32;20630;-82
2022/07/14 08:40:08;;;;;;;0.60;0.50;;;;;;;;;;4359000;32;20289;-81
2022/07/14 08:42:35;;;;;;;4.03;0.95;;;;;;;;;;4360294;32;20661;-81
2022/07/14 08:45:07;;;;;;;4.25;1.17;;;;;;;;;;4360178;32;20687;-81
2022/07/14 08:47:35;;;;;;;1.00;0.85;;;;;;;;;;4360336;32;20502;-81
2022/07/14 08:50:05;;;;;;;3.00;1.45;;;;;;;;;;4359796;32;20532;-81
2022/07/14 08:52:32;;;;;;;1.10;0.90;;;;;;;;;;4346621;32;20563;-82
2022/07/14 08:54:58;;;;;;;0.90;0.60;;;;;;;;;;4359900;32;20563;-81
2022/07/14 08:57:24;;;;;;;2.50;0.70;;;;;;;;;;4359866;32;20584;-83
2022/07/14 08:59:50;;;;;;;1.17;0.70;;;;;;;;;;4359801;32;20745;-82
2022/07/14 09:02:16;;;;;;;3.25;0.70;;;;;;;;;;4359848;32;20261;-81
2022/07/14 09:04:46;;;;;;;3.80;0.88;;;;;;;;;;4358655;32;20214;-82
2022/07/14 09:07:30;;;;;;;1.10;0.60;;;;;;;;;;4360045;32;20596;-85
2022/07/14 09:10:15;;;;;;;4.07;0.73;;;;;;;;;;4359740;32;20704;-82
2022/07/14 09:12:41;;;;;;;2.55;0.68;;;;;;;;;;4359713;32;20625;-81
2022/07/14 09:17:59;;;;;;;1.30;0.70;;;;;;;;;;4359696;32;20273;-82
2022/07/14 09:20:28;;;;;;;5.12;0.60;;;;;;;;;;4360074;32;20641;-81
2022/07/14 09:22:59;;;;;;;2.05;0.80;;;;;;;;;;4345883;32;20642;-82
2022/07/14 09:25:28;;;;;;;1.67;0.50;;;;;;;;;;4346156;32;20654;-82
2022/07/14 09:27:54;;;;;;;2.70;0.80;;;;;;;;;;4345868;32;20573;-82
2022/07/14 09:30:21;;;;;;;1.12;0.70;;;;;;;;;;4359731;32;20517;-81
2022/07/14 09:32:51;;;;;;;3.22;0.82;;;;;;;;;;4359659;32;20507;-82
2022/07/14 09:35:22;;;;;;;7.25;0.70;;;;;;;;;;4359962;32;20620;-82
2022/07/14 09:37:51;;;;;;;5.72;0.82;;;;;;;;;;4345918;32;20587;-82
2022/07/14 09:40:41;;;;;;;0.80;0.70;;;;;;;;;;4359475;32;20559;-82
2022/07/14 09:43:08;;;;;;;0.88;0.60;;;;;;;;;;4359582;32;20666;-80
2022/07/14 09:45:39;;;;;;;2.15;0.90;;;;;;;;;;4358265;32;20721;-81
2022/07/14 09:48:12;;;;;;;2.12;0.98;;;;;;;;;;4358072;32;20580;-80
2022/07/14 09:50:51;;;;;;;1.37;0.70;;;;;;;;;;4359227;32;20626;-81
2022/07/14 09:53:25;;;;;;;1.60;0.70;;;;;;;;;;4359149;32;20647;-81
2022/07/14 09:56:04;;;;;;;3.40;1.12;;;;;;;;;;4345363;32;20505;-82
2022/07/14 09:58:40;;;;;;;3.00;0.95;;;;;;;;;;4359258;32;20628;-79
2022/07/14 10:01:08;;;;;;;1.33;0.77;;;;;;;;;;4359238;32;20649;-80
2022/07/14 10:03:36;;;;;;;0.88;0.62;;;;;;;;;;4357619;32;20525;-80
2022/07/14 10:06:03;;;;;;;1.77;0.77;;;;;;;;;;4345634;32;20671;-81
2022/07/14 10:08:31;;;;;;;2.65;0.93;;;;;;;;;;4359204;32;20558;-80
2022/07/14 10:10:59;;;;;;;1.58;0.85;;;;;;;;;;4359551;32;20517;-81
2022/07/14 10:13:25;;;;;;;3.85;1.37;;;;;;;;;;4359032;32;20648;-81
2022/07/14 10:15:53;;;;;;;3.12;1.08;;;;;;;;;;4359068;32;20607;-82
2022/07/14 10:18:21;;;;;;;1.65;0.80;;;;;;;;;;4345421;32;20618;-80
2022/07/14 10:20:52;;;;;;;1.20;0.90;;;;;;;;;;4359164;32;20478;-80
2022/07/14 10:23:19;;;;;;;2.47;0.80;;;;;;;;;;4359093;32;20733;-81
2022/07/14 10:25:47;;;;;;;2.47;1.02;;;;;;;;;;4358959;32;20450;-84
2022/07/14 10:28:17;;;;;;;1.30;0.98;;;;;;;;;;4358833;32;20564;-80
2022/07/14 10:31:04;;;;;;;1.87;0.82;;;;;;;;;;4359194;32;20599;-80
2022/07/14 10:34:21;;;;;;;2.45;0.70;;;;;;;;;;4358936;33;20555;-80
2022/07/14 10:37:48;;;;;;;2.92;1.00;;;;;;;;;;4345474;33;20571;-83
2022/07/14 10:40:28;;;;;;;1.25;0.98;;;;;;;;;;4300791;33;20692;-80
2022/07/14 10:43:12;;;;;;;1.75;0.77;;;;;;;;;;4312977;33;20638;-80
2022/07/14 10:45:55;;;;;;;2.92;0.80;;;;;;;;;;4338962;33;20559;-80
2022/07/14 10:48:36;;;;;;;4.55;1.20;;;;;;;;;;4345084;33;20571;-81
2022/07/14 10:51:27;;;;;;;2.28;1.17;;;;;;;;;;4358852;33;20647;-81
2022/07/14 10:54:16;;;;;;;1.90;1.15;;;;;;;;;;4345994;33;20536;-80
2022/07/14 10:56:45;;;;;;;1.77;1.00;;;;;;;;;;4359195;33;20663;-79
2022/07/14 10:59:26;;;;;;;0.90;0.73;;;;;;;;;;4358458;33;20685;-80
2022/07/14 11:02:10;;;;;;;3.05;1.08;;;;;;;;;;4358733;33;20588;-81
2022/07/14 11:04:55;;;;;;;2.03;0.90;;;;;;;;;;4345111;33;20604;-80
2022/07/14 11:07:48;;;;;;;3.45;0.68;;;;;;;;;;4358770;33;20533;-82
2022/07/14 11:10:19;;;;;;;2.22;0.60;;;;;;;;;;4358607;33;20602;-80
2022/07/14 11:13:06;;;;;;;1.95;0.95;;;;;;;;;;4358942;33;20486;-80
2022/07/14 11:15:51;;;;;;;2.80;1.42;;;;;;;;;;4359616;32;20540;-81
2022/07/14 11:18:18;;;;;;;6.95;0.85;;;;;;;;;;4361866;32;20500;-81
2022/07/14 11:21:05;;;;;;;1.27;0.75;;;;;;;;;;4361704;32;20403;-80
2022/07/14 11:23:50;;;;;;;1.00;0.85;;;;;;;;;;4361526;32;20651;-79
2022/07/14 11:26:44;;;;;;;2.62;0.80;;;;;;;;;;4347793;32;20575;-79
2022/07/14 11:29:11;;;;;;;0.80;0.60;;;;;;;;;;4361682;32;20567;-80
2022/07/14 11:31:44;;;;;;;1.20;0.73;;;;;;;;;;4361502;32;20540;-80
2022/07/14 11:37:19;;;;;;;4.60;0.98;;;;;;;;;;4361389;32;20260;-81
2022/07/14 11:39:45;;;;;;;0.75;0.60;;;;;;;;;;4360032;32;20643;-81
2022/07/14 11:42:16;;;;;;;1.50;0.90;;;;;;;;;;4361344;32;20521;-81
2022/07/14 11:44:43;;;;;;;1.58;0.70;;;;;;;;;;4360230;32;20658;-81
2022/07/14 11:47:19;;;;;;;1.50;0.50;;;;;;;;;;4361065;32;20624;-82
2022/07/14 11:49:56;;;;;;;1.55;0.80;;;;;;;;;;4361234;32;20661;-80
2022/07/14 11:52:29;;;;;;;0.52;0.52;;;;;;;;;;4361542;32;20577;-85
2022/07/14 11:54:57;;;;;;;2.60;0.75;;;;;;;;;;4361071;32;20656;-81
2022/07/14 11:57:29;;;;;;;0.73;0.70;;;;;;;;;;4361415;32;20639;-81
2022/07/14 12:00:09;;;;;;;1.65;1.05;;;;;;;;;;4361085;32;20512;-83
2022/07/14 12:02:52;;;;;;;1.75;0.80;;;;;;;;;;4361510;32;20553;-81
2022/07/14 12:05:20;;;;;;;1.62;0.70;;;;;;;;;;4360972;32;20502;-81
2022/07/14 12:07:49;;;;;;;10.15;1.23;;;;;;;;;;4360855;32;20576;-81
2022/07/14 12:10:32;;;;;;;1.05;0.73;;;;;;;;;;4361077;32;20588;-81
2022/07/14 12:12:59;;;;;;;0.90;0.50;;;;;;;;;;4360778;32;20638;-81
2022/07/14 12:15:26;;;;;;;2.45;0.80;;;;;;;;;;4360868;32;20555;-81
2022/07/14 12:17:54;;;;;;;1.05;0.77;;;;;;;;;;4347080;32;20549;-81
2022/07/14 12:20:22;;;;;;;1.37;0.68;;;;;;;;;;4361009;32;20563;-80
2022/07/14 12:22:53;;;;;;;0.60;0.50;;;;;;;;;;4360449;32;20528;-80
2022/07/14 12:25:27;;;;;;;3.83;0.90;;;;;;;;;;4360682;32;20239;-85
2022/07/14 12:27:53;;;;;;;0.68;0.50;;;;;;;;;;4360167;32;20545;-80
2022/07/14 12:30:19;;;;;;;1.25;0.73;;;;;;;;;;4360411;32;20646;-79
2022/07/14 12:32:45;;;;;;;1.73;0.75;;;;;;;;;;4360400;32;20533;-80
2022/07/14 12:35:11;;;;;;;3.28;1.12;;;;;;;;;;4360584;32;20233;-81
2022/07/14 12:37:37;;;;;;;1.17;0.60;;;;;;;;;;4359157;32;20573;-80
2022/07/14 12:40:06;;;;;;;2.28;0.62;;;;;;;;;;4359996;32;20524;-79
2022/07/14 12:42:32;;;;;;;3.65;0.50;;;;;;;;;;4360363;32;20639;-79
2022/07/14 12:45:07;;;;;;;2.53;0.70;;;;;;;;;;4360543;32;20183;-85
2022/07/14 12:47:50;;;;;;;4.75;1.23;;;;;;;;;;4360318;32;20630;-87
2022/07/14 12:50:22;;;;;;;0.65;0.50;;;;;;;;;;4360499;32;20528;-79
2022/07/14 12:52:53;;;;;;;2.83;0.82;;;;;;;;;;4360864;32;20583;-82
2022/07/14 12:55:44;;;;;;;6.05;1.02;;;;;;;;;;4360933;32;20568;-87
2022/07/14 12:58:11;;;;;;;2.08;0.65;;;;;;;;;;4360085;32;20555;-86
2022/07/14 13:00:42;;;;;;;1.70;0.90;;;;;;;;;;4360064;32;20712;-83
2022/07/14 13:03:19;;;;;;;5.65;0.95;;;;;;;;;;4360264;32;20673;-80
2022/07/14 13:05:57;;;;;;;4.40;0.80;;;;;;;;;;4360423;32;20188;-80
2022/07/14 13:08:30;;;;;;;2.10;0.90;;;;;;;;;;4359064;32;20659;-84
2022/07/14 13:10:58;;;;;;;3.50;1.08;;;;;;;;;;4360268;32;20551;-85
2022/07/14 13:13:37;;;;;;;2.05;0.80;;;;;;;;;;4346356;32;20634;-79
2022/07/14 13:16:28;;;;;;;4.97;0.80;;;;;;;;;;4360083;32;20698;-84
2022/07/14 13:19:13;;;;;;;8.60;0.70;;;;;;;;;;4359915;32;20604;-84
2022/07/14 13:21:57;;;;;;;11.15;1.70;;;;;;;;;;4360122;32;20596;-84
2022/07/14 13:24:45;;;;;;;2.22;0.98;;;;;;;;;;4359048;32;20477;-80
2022/07/14 13:27:14;;;;;;;1.10;0.65;;;;;;;;;;4360047;32;20616;-84
2022/07/14 13:29:43;;;;;;;2.42;0.70;;;;;;;;;;4359814;32;20579;-82
2022/07/14 13:32:10;;;;;;;0.93;0.62;;;;;;;;;;4359732;32;20635;-80
2022/07/14 13:34:38;;;;;;;1.87;0.95;;;;;;;;;;4346114;32;20555;-81
2022/07/14 13:37:06;;;;;;;1.98;0.82;;;;;;;;;;4359635;32;20606;-79
2022/07/14 13:39:32;;;;;;;0.98;0.88;;;;;;;;;;4359184;32;20642;-80
2022/07/14 13:41:58;;;;;;;1.48;0.70;;;;;;;;;;4359563;32;20600;-81
2022/07/14 13:44:25;;;;;;;4.00;0.82;;;;;;;;;;4345877;32;20654;-79
2022/07/14 13:46:51;;;;;;;1.45;0.90;;;;;;;;;;4359370;32;20626;-80
2022/07/14 13:49:17;;;;;;;1.50;0.90;;;;;;;;;;4359538;32;20547;-83
2022/07/14 13:54:31;;;;;;;2.12;0.77;;;;;;;;;;4359604;32;20217;-85
2022/07/14 13:56:57;;;;;;;1.00;0.50;;;;;;;;;;4359294;32;20654;-80
2022/07/14 13:59:23;;;;;;;1.50;0.80;;;;;;;;;;4359260;32;20628;-84
2022/07/14 14:01:50;;;;;;;2.03;0.70;;;;;;;;;;4359329;32;20217;-79
2022/07/14 14:04:16;;;;;;;2.85;0.80;;;;;;;;;;4359257;32;20494;-79
2022/07/14 14:06:44;;;;;;;7.18;0.88;;;;;;;;;;4360024;32;20528;-83
2022/07/14 14:09:12;;;;;;;0.93;0.62;;;;;;;;;;4359235;32;20693;-83
2022/07/14 14:11:39;;;;;;;1.10;0.80;;;;;;;;;;4359504;32;20545;-80
2022/07/14 14:14:05;;;;;;;1.95;0.80;;;;;;;;;;4359858;32;20671;-79
2022/07/14 14:16:31;;;;;;;3.92;0.82;;;;;;;;;;4359381;32;20603;-80
2022/07/14 14:18:58;;;;;;;3.90;1.05;;;;;;;;;;4359133;32;20218;-81
2022/07/14 14:21:24;;;;;;;1.77;0.70;;;;;;;;;;4359391;32;20653;-80
2022/07/14 14:23:50;;;;;;;1.83;0.55;;;;;;;;;;4359384;32;20559;-79
2022/07/14 14:26:17;;;;;;;0.77;0.65;;;;;;;;;;4358352;32;20261;-79
2022/07/14 14:28:43;;;;;;;5.07;0.77;;;;;;;;;;4359651;32;20628;-79
2022/07/14 14:31:09;;;;;;;1.27;0.80;;;;;;;;;;4359837;32;20265;-80
2022/07/14 14:33:35;;;;;;;1.17;0.65;;;;;;;;;;4358718;32;20615;-80
2022/07/14 14:36:04;;;;;;;2.40;1.00;;;;;;;;;;4359343;33;20233;-81
2022/07/14 14:38:30;;;;;;;1.05;0.60;;;;;;;;;;4359632;33;20622;-80
2022/07/14 14:40:57;;;;;;;2.60;0.90;;;;;;;;;;4357944;33;20628;-80
2022/07/14 14:43:24;;;;;;;7.15;0.88;;;;;;;;;;4359191;33;20615;-81
2022/07/14 14:45:56;;;;;;;0.62;0.60;;;;;;;;;;4359277;33;20627;-79
2022/07/14 14:48:23;;;;;;;1.40;0.60;;;;;;;;;;4359811;33;20612;-79
2022/07/14 14:50:49;;;;;;;0.90;0.80;;;;;;;;;;4348760;32;20214;-79
2022/07/14 14:53:15;;;;;;;0.77;0.60;;;;;;;;;;4349402;32;20210;-79
2022/07/14 14:55:41;;;;;;;4.30;0.80;;;;;;;;;;4362226;32;20572;-80
2022/07/14 14:58:08;;;;;;;2.03;1.15;;;;;;;;;;4362368;32;20179;-80
2022/07/14 15:00:34;;;;;;;0.85;0.65;;;;;;;;;;4362181;32;20807;-79
2022/07/14 15:03:00;;;;;;;4.10;0.60;;;;;;;;;;4362025;32;20190;-80
2022/07/14 15:05:26;;;;;;;5.90;0.80;;;;;;;;;;4348727;32;20222;-82
2022/07/14 15:07:52;;;;;;;1.05;0.55;;;;;;;;;;4362106;32;20571;-80
2022/07/14 15:10:18;;;;;;;0.80;0.43;;;;;;;;;;4362277;32;20301;-80